createdAt,value
2022-10-03T00:02:46.522Z,10.34
2022-10-03T00:05:36.155Z,10.33
2022-10-03T00:08:24.456Z,10.28
2022-10-03T00:11:17.806Z,10.24
2022-10-03T00:13:53.321Z,10.21
2022-10-03T00:16:36.661Z,10.15
2022-10-03T00:19:28.523Z,10.15
2022-10-03T00:22:22.050Z,10.11
2022-10-03T00:25:15.873Z,10.04
2022-10-03T00:27:53.719Z,10.03
2022-10-03T00:30:22.891Z,10.00
2022-10-03T00:33:03.160Z,10.01
2022-10-03T00:35:35.536Z,10.00
2022-10-03T00:38:35.861Z,10.01
2022-10-03T00:41:27.858Z,9.98
2022-10-03T00:44:33.025Z,9.91
2022-10-03T00:47:11.619Z,9.89
2022-10-03T00:50:07.664Z,9.86
2022-10-03T00:52:58.518Z,9.84
2022-10-03T00:55:52.838Z,9.84
2022-10-03T00:58:25.863Z,9.78
2022-10-03T01:00:57.913Z,9.72
2022-10-03T01:03:39.092Z,9.67
2022-10-03T01:06:27.244Z,9.60
2022-10-03T01:09:12.018Z,9.55
2022-10-03T01:11:49.639Z,9.58
2022-10-03T01:14:16.531Z,9.60
2022-10-03T01:16:46.298Z,9.64
2022-10-03T01:19:38.651Z,9.65
2022-10-03T01:22:36.309Z,9.77
2022-10-03T01:25:47.883Z,9.83
2022-10-03T01:29:00.110Z,9.90
2022-10-03T01:31:51.252Z,9.95
2022-10-03T01:34:51.276Z,10.03
2022-10-03T01:37:23.779Z,10.09
2022-10-03T01:40:16.231Z,10.16
2022-10-03T01:43:02.847Z,10.24
2022-10-03T01:45:52.650Z,10.29
2022-10-03T01:48:43.718Z,10.33
2022-10-03T01:51:41.525Z,10.33
2022-10-03T01:54:33.173Z,10.43
2022-10-03T01:57:02.798Z,10.46
2022-10-03T01:59:57.011Z,10.49
2022-10-03T02:02:36.152Z,10.52
2022-10-03T02:05:40.381Z,10.57
2022-10-03T02:08:28.160Z,10.60
2022-10-03T02:11:04.287Z,10.60
2022-10-03T02:13:47.833Z,10.63
2022-10-03T02:16:17.607Z,10.62
2022-10-03T02:19:03.197Z,10.62
2022-10-03T02:21:34.249Z,10.57
2022-10-03T02:24:32.439Z,10.52
2022-10-03T02:27:01.785Z,10.48
2022-10-03T02:29:52.615Z,10.46
2022-10-03T02:32:51.910Z,10.46
2022-10-03T02:35:37.145Z,10.48
2022-10-03T02:39:12.445Z,10.51
2022-10-03T02:41:44.446Z,10.54
2022-10-03T02:44:42.773Z,10.57
2022-10-03T02:47:27.618Z,10.62
2022-10-03T02:49:53.922Z,10.64
2022-10-03T02:52:20.282Z,10.66
2022-10-03T02:55:13.518Z,10.71
2022-10-03T02:58:33.316Z,10.73
2022-10-03T03:01:41.791Z,10.72
2022-10-03T03:04:23.561Z,10.77
2022-10-03T03:07:05.752Z,10.77
2022-10-03T03:09:53.013Z,10.74
2022-10-03T03:12:55.368Z,10.76
2022-10-03T03:15:46.625Z,10.79
2022-10-03T03:18:24.636Z,10.80
2022-10-03T03:21:05.520Z,10.84
2022-10-03T03:24:02.788Z,10.86
2022-10-03T03:26:46.893Z,10.84
2022-10-03T03:29:26.162Z,10.82
2022-10-03T03:32:31.076Z,10.79
2022-10-03T03:35:09.907Z,10.75
2022-10-03T03:37:53.287Z,10.73
2022-10-03T03:40:35.072Z,10.71
2022-10-03T03:43:08.627Z,10.70
2022-10-03T03:45:54.381Z,10.68
2022-10-03T03:48:42.200Z,10.66
2022-10-03T03:51:22.707Z,10.66
2022-10-03T03:54:10.950Z,10.64
2022-10-03T03:57:09.181Z,10.64
2022-10-03T03:59:57.185Z,10.63
2022-10-03T04:02:34.299Z,10.60
2022-10-03T04:05:15.901Z,10.59
2022-10-03T04:08:02.455Z,10.64
2022-10-03T04:10:53.749Z,10.62
2022-10-03T04:13:47.678Z,10.57
2022-10-03T04:16:45.406Z,10.62
2022-10-03T04:19:24.592Z,10.65
2022-10-03T04:22:18.062Z,10.68
2022-10-03T04:25:16.255Z,10.71
2022-10-03T04:28:26.584Z,10.72
2022-10-03T04:31:16.855Z,10.74
2022-10-03T04:34:12.442Z,10.72
2022-10-03T04:36:59.833Z,10.69
2022-10-03T04:39:28.945Z,10.68
2022-10-03T04:41:58.724Z,10.64
2022-10-03T04:44:40.376Z,10.63
2022-10-03T04:47:34.155Z,10.65
2022-10-03T04:50:03.224Z,10.68
2022-10-03T04:53:06.133Z,10.68
2022-10-03T04:55:49.947Z,10.67
2022-10-03T04:58:39.059Z,10.68
2022-10-03T05:01:17.736Z,10.70
2022-10-03T05:04:05.870Z,10.74
2022-10-03T05:07:19.898Z,10.79
2022-10-03T05:09:52.954Z,10.80
2022-10-03T05:12:31.185Z,10.82
2022-10-03T05:15:16.673Z,10.82
2022-10-03T05:17:55.933Z,10.83
2022-10-03T05:20:44.597Z,10.85
2022-10-03T05:23:50.189Z,10.83
2022-10-03T05:26:46.307Z,10.81
2022-10-03T05:29:41.819Z,10.78
2022-10-03T05:32:23.109Z,10.78
2022-10-03T05:35:27.181Z,10.78
2022-10-03T05:38:15.498Z,10.76
2022-10-03T05:41:03.149Z,10.75
2022-10-03T05:44:07.086Z,10.75
2022-10-03T05:46:51.977Z,10.74
2022-10-03T05:49:23.640Z,10.73
2022-10-03T05:52:12.449Z,10.72
2022-10-03T05:54:41.931Z,10.68
2022-10-03T05:57:27.061Z,10.68
2022-10-03T06:00:02.531Z,10.68
2022-10-03T06:03:09.103Z,10.73
2022-10-03T06:05:53.696Z,10.75
2022-10-03T06:08:25.914Z,10.77
2022-10-03T06:11:20.389Z,10.80
2022-10-03T06:14:18.068Z,10.86
2022-10-03T06:17:04.375Z,10.92
2022-10-03T06:19:56.642Z,10.97
2022-10-03T06:22:50.674Z,11.02
2022-10-03T06:25:26.332Z,11.02
2022-10-03T06:28:14.991Z,11.04
2022-10-03T06:30:56.676Z,11.10
2022-10-03T06:33:53.524Z,11.19
2022-10-03T06:36:32.535Z,11.27
2022-10-03T06:39:36.462Z,11.33
2022-10-03T06:42:21.825Z,11.41
2022-10-03T06:45:06.421Z,11.47
2022-10-03T06:48:00.654Z,11.57
2022-10-03T06:50:36.097Z,11.67
2022-10-03T06:53:28.432Z,11.69
2022-10-03T06:56:05.747Z,11.74
2022-10-03T06:58:56.994Z,11.75
2022-10-03T07:01:57.400Z,11.75
2022-10-03T07:04:43.878Z,11.74
2022-10-03T07:07:38.833Z,11.74
2022-10-03T07:10:30.046Z,11.69
2022-10-03T07:13:21.383Z,11.67
2022-10-03T07:16:28.558Z,11.65
2022-10-03T07:19:13.534Z,11.62
2022-10-03T07:22:10.407Z,11.59
2022-10-03T07:24:52.159Z,11.59
2022-10-03T07:27:46.317Z,11.61
2022-10-03T07:30:21.737Z,11.60
2022-10-03T07:33:06.374Z,11.60
2022-10-03T07:36:08.223Z,11.61
2022-10-03T07:39:00.645Z,11.65
2022-10-03T07:41:52.286Z,11.73
2022-10-03T07:44:47.980Z,11.71
2022-10-03T07:47:35.925Z,11.74
2022-10-03T07:50:50.308Z,11.83
2022-10-03T07:53:25.634Z,11.97
2022-10-03T07:56:16.123Z,12.05
2022-10-03T07:58:43.011Z,12.11
2022-10-03T08:01:31.210Z,12.18
2022-10-03T08:04:25.933Z,12.22
2022-10-03T08:07:26.638Z,12.22
2022-10-03T08:10:13.064Z,12.19
2022-10-03T08:12:56.365Z,12.17
2022-10-03T08:15:43.087Z,12.13
2022-10-03T08:18:34.422Z,12.11
2022-10-03T08:21:03.069Z,12.03
2022-10-03T08:23:47.972Z,12.06
2022-10-03T08:26:32.173Z,12.07
2022-10-03T08:29:04.466Z,12.08
2022-10-03T08:31:48.739Z,12.06
2022-10-03T08:34:40.120Z,12.09
2022-10-03T08:37:38.803Z,12.19
2022-10-03T08:40:42.049Z,12.26
2022-10-03T08:43:33.298Z,12.26
2022-10-03T08:46:12.673Z,12.25
2022-10-03T08:49:04.105Z,12.30
2022-10-03T08:51:53.545Z,12.35
2022-10-03T08:55:02.346Z,12.44
2022-10-03T08:57:58.970Z,12.53
2022-10-03T09:00:41.434Z,12.54
2022-10-03T09:03:43.184Z,12.55
2022-10-03T09:06:33.041Z,12.56
2022-10-03T09:09:24.171Z,12.50
2022-10-03T09:12:18.284Z,12.48
2022-10-03T09:15:22.556Z,12.65
2022-10-03T09:18:13.985Z,12.99
2022-10-03T09:21:13.078Z,13.31
2022-10-03T09:24:14.587Z,13.60
2022-10-03T09:27:13.436Z,13.85
2022-10-03T09:29:51.687Z,14.08
2022-10-03T09:32:30.176Z,14.16
2022-10-03T09:35:25.567Z,14.01
2022-10-03T09:38:02.816Z,13.75
2022-10-03T09:40:56.345Z,13.61
2022-10-03T09:43:48.145Z,13.72
2022-10-03T09:46:36.656Z,13.66
2022-10-03T09:49:48.145Z,13.56
2022-10-03T09:52:50.818Z,13.50
2022-10-03T09:55:49.497Z,13.66
2022-10-03T09:58:37.510Z,13.63
2022-10-03T10:01:09.884Z,13.54
2022-10-03T10:04:10.408Z,13.38
2022-10-03T10:06:42.908Z,13.38
2022-10-03T10:09:40.229Z,13.35
2022-10-03T10:12:27.410Z,13.40
2022-10-03T10:15:13.599Z,13.73
2022-10-03T10:18:04.669Z,14.25
2022-10-03T10:21:03.056Z,14.77
2022-10-03T10:23:55.621Z,15.06
2022-10-03T10:26:45.009Z,15.17
2022-10-03T10:29:44.417Z,15.26
2022-10-03T10:32:55.999Z,15.03
2022-10-03T10:35:40.344Z,14.87
2022-10-03T10:38:28.509Z,15.15
2022-10-03T10:40:59.898Z,15.38
2022-10-03T10:43:51.228Z,15.58
2022-10-03T10:46:45.693Z,15.84
2022-10-03T10:49:40.349Z,15.65
2022-10-03T10:52:48.643Z,15.67
2022-10-03T10:55:59.789Z,15.57
2022-10-03T10:58:59.761Z,15.27
2022-10-03T11:02:03.640Z,14.97
2022-10-03T11:05:07.364Z,14.74
2022-10-03T11:08:08.549Z,14.51
2022-10-03T11:11:13.868Z,14.35
2022-10-03T11:14:11.109Z,14.20
2022-10-03T11:17:15.750Z,14.13
2022-10-03T11:20:04.081Z,14.11
2022-10-03T11:22:39.444Z,14.08
2022-10-03T11:25:50.205Z,14.12
2022-10-03T11:28:46.485Z,14.15
2022-10-03T11:31:44.197Z,14.28
2022-10-03T11:34:32.319Z,14.41
2022-10-03T11:37:07.630Z,14.53
2022-10-03T11:39:42.826Z,14.55
2022-10-03T11:42:24.635Z,14.60
2022-10-03T11:45:06.601Z,14.66
2022-10-03T11:47:32.903Z,15.20
2022-10-03T11:50:39.020Z,16.15
2022-10-03T11:53:18.588Z,16.74
2022-10-03T11:55:57.910Z,16.73
2022-10-03T11:58:41.390Z,16.48
2022-10-03T12:01:16.626Z,16.27
2022-10-03T12:04:01.720Z,16.08
2022-10-03T12:07:17.353Z,15.92
2022-10-03T12:09:59.135Z,15.80
2022-10-03T12:12:43.233Z,15.70
2022-10-03T12:15:26.529Z,15.64
2022-10-03T12:18:14.937Z,15.60
2022-10-03T12:21:05.180Z,15.95
2022-10-03T12:24:03.966Z,16.07
2022-10-03T12:26:45.338Z,15.97
2022-10-03T12:29:13.222Z,15.83
2022-10-03T12:32:00.281Z,15.70
2022-10-03T12:34:51.388Z,15.58
2022-10-03T12:37:43.326Z,15.40
2022-10-03T12:40:12.529Z,15.37
2022-10-03T12:43:02.722Z,15.42
2022-10-03T12:46:00.292Z,15.80
2022-10-03T12:48:47.888Z,16.02
2022-10-03T12:51:32.656Z,15.79
2022-10-03T12:54:17.150Z,15.69
2022-10-03T12:56:50.446Z,15.68
2022-10-03T12:59:35.508Z,15.61
2022-10-03T13:02:35.315Z,15.61
2022-10-03T13:05:37.454Z,15.63
2022-10-03T13:08:28.084Z,15.88
2022-10-03T13:11:07.006Z,15.79
2022-10-03T13:13:51.204Z,15.61
2022-10-03T13:16:50.353Z,15.90
2022-10-03T13:19:22.268Z,16.59
2022-10-03T13:22:28.072Z,16.93
2022-10-03T13:25:18.816Z,17.27
2022-10-03T13:28:00.536Z,17.61
2022-10-03T13:30:32.530Z,18.04
2022-10-03T13:33:14.124Z,18.18
2022-10-03T13:36:02.689Z,18.13
2022-10-03T13:39:07.877Z,18.07
2022-10-03T13:41:59.849Z,17.76
2022-10-03T13:44:40.638Z,17.53
2022-10-03T13:47:35.005Z,17.35
2022-10-03T13:50:09.123Z,17.31
2022-10-03T13:52:44.876Z,17.22
2022-10-03T13:55:19.430Z,17.13
2022-10-03T13:58:05.700Z,16.97
2022-10-03T14:00:53.581Z,16.82
2022-10-03T14:03:30.896Z,16.64
2022-10-03T14:06:12.298Z,16.55
2022-10-03T14:09:09.467Z,16.47
2022-10-03T14:11:49.158Z,16.58
2022-10-03T14:14:23.893Z,17.21
2022-10-03T14:17:04.815Z,17.30
2022-10-03T14:19:32.474Z,17.14
2022-10-03T14:22:35.617Z,17.15
2022-10-03T14:25:19.385Z,17.16
2022-10-03T14:27:54.213Z,17.25
2022-10-03T14:31:05.029Z,17.19
2022-10-03T14:33:43.495Z,17.15
2022-10-03T14:36:33.022Z,17.05
2022-10-03T14:39:11.568Z,16.96
2022-10-03T14:41:52.070Z,16.99
2022-10-03T14:44:21.658Z,17.03
2022-10-03T14:47:00.620Z,16.97
2022-10-03T14:52:43.562Z,17.00
2022-10-03T14:55:14.560Z,17.23
2022-10-03T14:58:05.998Z,17.15
2022-10-03T15:00:39.137Z,17.18
2022-10-03T15:03:17.579Z,17.56
2022-10-03T15:06:01.833Z,18.45
2022-10-03T15:08:40.121Z,19.55
2022-10-03T15:11:08.834Z,19.89
2022-10-03T15:13:40.872Z,20.53
2022-10-03T15:16:09.472Z,20.18
2022-10-03T15:18:37.897Z,19.44
2022-10-03T15:21:05.740Z,19.05
2022-10-03T15:23:41.088Z,18.66
2022-10-03T15:26:15.047Z,17.94
2022-10-03T15:28:46.792Z,17.43
2022-10-03T15:31:43.210Z,17.52
2022-10-03T15:34:19.241Z,18.81
2022-10-03T15:36:49.876Z,18.32
2022-10-03T15:39:30.512Z,17.46
2022-10-03T15:42:09.105Z,16.75
2022-10-03T15:44:50.222Z,16.31
2022-10-03T15:47:31.484Z,16.10
2022-10-03T15:50:17.420Z,16.15
2022-10-03T15:52:49.086Z,16.19
2022-10-03T15:55:25.241Z,16.15
2022-10-03T15:58:02.074Z,16.26
2022-10-03T16:00:31.261Z,16.70
2022-10-03T16:03:12.969Z,17.25
2022-10-03T16:06:02.022Z,17.57
2022-10-03T16:08:32.121Z,17.84
2022-10-03T16:11:04.690Z,18.13
2022-10-03T16:13:42.076Z,18.20
2022-10-03T16:16:22.160Z,18.20
2022-10-03T16:19:02.599Z,18.22
2022-10-03T16:22:05.486Z,18.31
2022-10-03T16:25:01.070Z,18.36
2022-10-03T16:27:31.015Z,18.47
2022-10-03T16:30:09.310Z,18.92
2022-10-03T16:33:00.533Z,19.59
2022-10-03T16:35:37.210Z,20.09
2022-10-03T16:38:13.888Z,20.07
2022-10-03T16:40:40.811Z,19.57
2022-10-03T16:43:09.770Z,19.03
2022-10-03T16:45:46.212Z,18.29
2022-10-03T16:48:53.050Z,17.30
2022-10-03T16:51:35.970Z,16.49
2022-10-03T16:54:03.841Z,15.83
2022-10-03T16:56:36.531Z,15.29
2022-10-03T16:59:12.297Z,14.86
2022-10-03T17:01:56.143Z,14.51
2022-10-03T17:04:24.564Z,14.18
2022-10-03T17:06:55.442Z,13.90
2022-10-03T17:09:30.846Z,13.68
2022-10-03T17:11:59.249Z,13.47
2022-10-03T17:14:35.500Z,13.29
2022-10-03T17:17:07.152Z,13.14
2022-10-03T17:19:42.503Z,13.01
2022-10-03T17:22:21.315Z,12.87
2022-10-03T17:25:03.296Z,12.74
2022-10-03T17:27:36.804Z,12.60
2022-10-03T17:30:14.125Z,12.49
2022-10-03T17:32:44.032Z,12.42
2022-10-03T17:35:15.441Z,12.33
2022-10-03T17:37:50.689Z,12.24
2022-10-03T17:41:00.429Z,12.13
2022-10-03T17:43:42.261Z,12.01
2022-10-03T17:46:20.557Z,11.95
2022-10-03T17:49:17.525Z,11.89
2022-10-03T17:51:47.401Z,11.81
2022-10-03T17:54:18.990Z,11.77
2022-10-03T17:57:01.969Z,11.70
2022-10-03T17:59:33.633Z,11.62
2022-10-03T18:02:18.506Z,11.54
2022-10-03T18:04:53.103Z,11.46
2022-10-03T18:07:23.968Z,11.40
2022-10-03T18:09:53.042Z,11.34
2022-10-03T18:12:27.888Z,11.28
2022-10-03T18:15:16.168Z,11.16
2022-10-03T18:18:07.660Z,11.16
2022-10-03T18:20:41.775Z,11.08
2022-10-03T18:23:27.062Z,10.90
2022-10-03T18:26:22.628Z,10.78
2022-10-03T18:29:16.092Z,10.73
2022-10-03T18:31:50.067Z,10.71
2022-10-03T18:34:21.116Z,10.64
2022-10-03T18:36:52.709Z,10.59
2022-10-03T18:39:25.254Z,10.58
2022-10-03T18:42:00.297Z,10.57
2022-10-03T18:44:30.454Z,10.58
2022-10-03T18:47:17.688Z,10.57
2022-10-03T18:49:55.962Z,10.50
2022-10-03T18:52:27.760Z,10.42
2022-10-03T18:55:21.172Z,10.37
2022-10-03T18:58:00.126Z,10.32
2022-10-03T19:00:30.022Z,10.30
2022-10-03T19:03:08.316Z,10.28
2022-10-03T19:06:29.589Z,10.24
2022-10-03T19:09:22.204Z,10.23
2022-10-03T19:11:59.936Z,10.20
2022-10-03T19:14:33.684Z,10.08
2022-10-03T19:17:21.942Z,10.00
2022-10-03T19:19:59.422Z,9.95
2022-10-03T19:22:32.898Z,9.92
2022-10-03T19:25:05.166Z,9.81
2022-10-03T19:27:59.679Z,9.73
2022-10-03T19:30:28.940Z,9.68
2022-10-03T19:33:02.228Z,9.62
2022-10-03T19:35:30.636Z,9.58
2022-10-03T19:38:06.076Z,9.53
2022-10-03T19:40:52.279Z,9.50
2022-10-03T19:43:21.477Z,9.49
2022-10-03T19:46:22.454Z,9.49
2022-10-03T19:49:00.790Z,9.47
2022-10-03T19:51:28.061Z,9.47
2022-10-03T19:53:59.722Z,9.42
2022-10-03T19:56:31.431Z,9.48
2022-10-03T19:59:05.823Z,9.48
2022-10-03T20:01:46.979Z,9.47
2022-10-03T20:04:16.784Z,9.44
2022-10-03T20:06:48.301Z,9.41
2022-10-03T20:09:28.743Z,9.33
2022-10-03T20:12:09.894Z,9.25
2022-10-03T20:14:40.560Z,9.22
2022-10-03T20:17:19.532Z,9.23
2022-10-03T20:20:06.239Z,9.18
2022-10-03T20:22:36.676Z,9.15
2022-10-03T20:25:08.146Z,9.13
2022-10-03T20:27:40.080Z,8.99
2022-10-03T20:30:45.143Z,9.07
2022-10-03T20:33:33.421Z,9.05
2022-10-03T20:36:22.190Z,9.00
2022-10-03T20:39:11.414Z,8.90
2022-10-03T20:41:59.487Z,8.84
2022-10-03T20:44:28.203Z,8.81
2022-10-03T20:47:06.450Z,8.79
2022-10-03T20:49:42.813Z,8.78
2022-10-03T20:52:17.796Z,8.71
2022-10-03T20:54:52.686Z,8.70
2022-10-03T20:57:25.730Z,8.68
2022-10-03T21:00:17.207Z,8.66
2022-10-03T21:02:50.372Z,8.67
2022-10-03T21:05:40.698Z,8.62
2022-10-03T21:08:21.172Z,8.63
2022-10-03T21:10:54.648Z,8.67
2022-10-03T21:13:43.957Z,8.60
2022-10-03T21:16:23.006Z,8.54
2022-10-03T21:18:52.133Z,8.57
2022-10-03T21:21:28.038Z,8.57
2022-10-03T21:24:24.058Z,8.55
2022-10-03T21:27:00.085Z,8.59
2022-10-03T21:29:32.558Z,8.58
2022-10-03T21:32:26.563Z,8.58
2022-10-03T21:35:01.739Z,8.58
2022-10-03T21:37:35.781Z,8.54
2022-10-03T21:40:25.727Z,8.51
2022-10-03T21:43:10.872Z,8.49
2022-10-03T21:45:46.439Z,8.48
2022-10-03T21:48:30.522Z,8.40
2022-10-03T21:51:03.213Z,8.33
2022-10-03T21:53:54.749Z,8.28
2022-10-03T21:56:33.198Z,8.22
2022-10-03T21:59:13.968Z,8.14
2022-10-03T22:01:52.932Z,8.04
2022-10-03T22:04:40.977Z,8.00
2022-10-03T22:07:13.480Z,8.01
2022-10-03T22:09:53.891Z,8.03
2022-10-03T22:12:21.464Z,8.05
2022-10-03T22:15:10.176Z,8.09
2022-10-03T22:17:53.869Z,8.11
2022-10-03T22:20:26.127Z,8.01
2022-10-03T22:23:17.156Z,7.99
2022-10-03T22:25:53.233Z,7.95
2022-10-03T22:28:37.045Z,7.94
2022-10-03T22:31:25.975Z,7.93
2022-10-03T22:34:17.367Z,7.87
2022-10-03T22:36:44.597Z,7.88
2022-10-03T22:39:15.086Z,7.87
2022-10-03T22:41:45.611Z,7.82
2022-10-03T22:44:14.395Z,7.75
2022-10-03T22:46:44.357Z,7.70
2022-10-03T22:49:22.716Z,7.64
2022-10-03T22:51:53.247Z,7.50
2022-10-03T22:54:19.619Z,7.54
2022-10-03T22:56:51.798Z,7.45
2022-10-03T22:59:25.320Z,7.58
2022-10-03T23:01:54.427Z,7.56
2022-10-03T23:04:32.601Z,7.59
2022-10-03T23:07:15.589Z,7.53
2022-10-03T23:09:56.976Z,7.57
2022-10-03T23:12:29.682Z,7.52
2022-10-03T23:15:00.352Z,7.53
2022-10-03T23:17:32.824Z,7.50
2022-10-03T23:20:02.310Z,7.50
2022-10-03T23:22:31.383Z,7.47
2022-10-03T23:25:16.814Z,7.47
2022-10-03T23:27:50.765Z,7.45
2022-10-03T23:30:17.134Z,7.37
2022-10-03T23:32:46.498Z,7.36
2022-10-03T23:35:17.471Z,7.33
2022-10-03T23:37:48.921Z,7.33
2022-10-03T23:40:20.621Z,7.31
2022-10-03T23:42:55.641Z,7.28
2022-10-03T23:45:24.443Z,7.25
2022-10-03T23:48:02.365Z,7.22
2022-10-03T23:50:44.039Z,7.20
2022-10-03T23:53:35.042Z,7.20
2022-10-03T23:56:04.556Z,7.12
2022-10-03T23:58:36.646Z,7.19
